Le Luc-Le Cannet Airport

Airport
ICAO code: 
LFMC
Summary
ICAO Region: 
EUR
Territory: 
Location: 
, Provence-Alpes-Cote d'Azur
Serving: 
Le Luc
Elevation: 
265 ft
Coordinates: 
Aerial View: 
43° 23' 4.819" N, 6° 23' 13.7" E
Metar
Observation
LFMC 240700Z AUTO 00000KT 0200 FZFG BKN006 OVC011 M01/M01 Q1030
Station
Le Luc
Date/Time
2022-01-24 07:00:00
Wind direction
Wind speed
00 kts
Lowest cloud amount
broken clouds
Temperature
-1°C
Dew point
-1°C
Humidity
100%
QNH
1030 hPa
Weather condition
n/a

Runways

Designator Length Width Surface Rops
9/27 800 30 ASP No/No
13/31 1400 30 ASP No/No
Airport map: 
Aerial View: 

SKYbrary Partners:

Safety knowledge contributed by: